Terminal Aerodrome Forecast
Issued by NWS Charleston, SC

Home | Current Version | Previous Version | Text Only | Print | Product List | Glossary On
Versions: 1 2 3 4 5 6 7 8 9 10 11 12
000
FTUS42 KCHS 302328
TAFCHS
TAF
KCHS 302328Z 3100/3124 21010KT P6SM SCT040 BKN100
     FM310500 20005KT P6SM SKC
     FM311600 20010KT P6SM SCT040=

USA.gov is the U.S. government's official web portal to all federal, state and local government web resources and services.